Time;durP1;ratioP1;P1;durP2;ratioP2;P2;SDS_P1;SDS_P2;PMS_P1;PMS_P2;Temp;Humidity;BMP_temperature;BMP_pressure;BME280_temperature;BME280_humidity;BME280_pressure;Samples;Min_cycle;Max_cycle;Signal;HPM_P1;HPM_P2
2023/06/03 00:00:41;;;;;;;2.83;1.73;;;13.40;99.90;;;;;;5055387;28;20592;-53
2023/06/03 00:03:17;;;;;;;4.00;1.47;;;13.40;99.90;;;;;;5058588;28;20212;-55
2023/06/03 00:05:43;;;;;;;5.23;1.67;;;13.40;99.90;;;;;;5058949;28;20506;-55
2023/06/03 00:08:09;;;;;;;10.63;2.07;;;13.40;99.90;;;;;;5060057;28;20473;-53
2023/06/03 00:10:34;;;;;;;2.90;1.30;;;13.30;99.90;;;;;;5059978;28;20180;-54
2023/06/03 00:13:00;;;;;;;3.93;1.50;;;13.30;99.90;;;;;;5047658;28;20200;-54
2023/06/03 00:15:26;;;;;;;2.40;1.90;;;13.40;99.90;;;;;;5061170;28;20187;-55
2023/06/03 00:17:51;;;;;;;3.63;1.73;;;13.40;99.90;;;;;;5061327;28;20192;-55
2023/06/03 00:20:17;;;;;;;5.03;1.77;;;13.40;99.90;;;;;;5066684;28;20187;-55
2023/06/03 00:22:43;;;;;;;3.63;1.50;;;13.40;99.90;;;;;;5054788;28;20192;-54
2023/06/03 00:25:11;;;;;;;1.40;1.30;;;13.30;99.90;;;;;;5057060;28;20212;-53
2023/06/03 00:27:37;;;;;;;1.80;1.47;;;13.30;99.90;;;;;;5063667;28;20438;-54
2023/06/03 00:30:05;;;;;;;2.23;1.27;;;13.20;99.90;;;;;;5058862;28;20461;-52
2023/06/03 00:32:31;;;;;;;2.53;1.50;;;13.20;99.90;;;;;;5047546;28;20485;-54
2023/06/03 00:34:57;;;;;;;2.23;1.53;;;13.20;99.90;;;;;;5059460;28;20450;-53
2023/06/03 00:37:22;;;;;;;4.83;1.50;;;13.20;99.90;;;;;;5051370;28;20449;-54
2023/06/03 00:39:48;;;;;;;5.93;1.97;;;13.10;99.90;;;;;;5060534;28;20650;-53
2023/06/03 00:42:14;;;;;;;1.97;1.40;;;12.90;99.90;;;;;;5057394;28;20212;-54
2023/06/03 00:44:39;;;;;;;13.37;5.30;;;12.90;99.90;;;;;;5060459;28;20299;-53
2023/06/03 00:47:07;;;;;;;13.53;5.40;;;12.90;99.90;;;;;;5063616;28;20187;-54
2023/06/03 00:49:34;;;;;;;12.57;6.07;;;12.90;99.90;;;;;;5056610;28;20245;-55
2023/06/03 00:52:01;;;;;;;6.07;2.40;;;12.90;99.90;;;;;;5055696;28;20447;-52
2023/06/03 00:54:26;;;;;;;5.40;2.40;;;12.90;99.90;;;;;;5054397;28;20774;-53
2023/06/03 00:56:57;;;;;;;4.80;2.80;;;12.90;99.90;;;;;;5056932;28;20469;-53
2023/06/03 00:59:23;;;;;;;3.77;2.20;;;12.80;99.90;;;;;;5056329;28;20227;-53
2023/06/03 01:01:49;;;;;;;4.07;2.60;;;12.80;99.90;;;;;;5062956;28;20464;-53
2023/06/03 01:04:17;;;;;;;4.43;1.93;;;12.80;99.90;;;;;;5057710;28;20188;-53
2023/06/03 01:07:06;;;;;;;4.37;1.93;;;12.70;99.90;;;;;;5054015;28;20449;-53
2023/06/03 01:09:53;;;;;;;3.10;1.30;;;12.70;99.90;;;;;;5051882;28;20805;-54
2023/06/03 01:12:34;;;;;;;2.23;1.00;;;12.70;99.90;;;;;;5045979;28;20437;-54
2023/06/03 01:15:08;;;;;;;3.03;1.57;;;12.70;99.90;;;;;;5056523;28;20444;-55
2023/06/03 01:17:45;;;;;;;2.60;1.50;;;12.60;99.90;;;;;;5055889;28;20951;-54
2023/06/03 01:20:12;;;;;;;3.80;1.50;;;12.60;99.90;;;;;;5056545;28;20946;-53
2023/06/03 01:22:40;;;;;;;3.40;1.57;;;12.50;99.90;;;;;;5068011;28;20549;-53
2023/06/03 01:25:11;;;;;;;3.83;1.50;;;12.50;99.90;;;;;;5055446;28;20975;-54
2023/06/03 01:27:39;;;;;;;6.70;1.17;;;12.50;99.90;;;;;;5061453;28;20446;-53
2023/06/03 01:30:08;;;;;;;2.63;1.40;;;12.40;99.90;;;;;;5064213;28;20481;-55
2023/06/03 01:32:36;;;;;;;4.10;1.27;;;12.40;99.90;;;;;;5062837;28;20896;-53
2023/06/03 01:35:03;;;;;;;2.43;1.20;;;12.30;99.90;;;;;;5061790;28;20941;-54
2023/06/03 01:37:30;;;;;;;3.40;1.60;;;12.20;99.90;;;;;;5062210;28;20450;-53
2023/06/03 01:39:56;;;;;;;2.73;1.40;;;12.10;99.90;;;;;;5062891;28;20583;-53
2023/06/03 01:42:22;;;;;;;2.20;1.27;;;12.10;99.90;;;;;;5062747;28;20438;-54
2023/06/03 01:44:48;;;;;;;3.90;2.00;;;12.10;99.90;;;;;;5051510;28;20477;-56
2023/06/03 01:47:14;;;;;;;5.07;2.60;;;12.00;99.90;;;;;;5069218;28;20279;-53
2023/06/03 01:49:40;;;;;;;12.60;4.73;;;11.80;99.90;;;;;;5065588;28;20183;-53
2023/06/03 01:52:06;;;;;;;3.47;1.73;;;11.70;99.90;;;;;;5068582;28;20433;-53
2023/06/03 01:54:31;;;;;;;2.30;1.90;;;11.60;99.90;;;;;;5070503;28;21271;-53
2023/06/03 01:56:57;;;;;;;3.07;1.80;;;11.50;99.90;;;;;;5059885;28;20565;-54
2023/06/03 01:59:24;;;;;;;2.63;1.80;;;11.30;99.90;;;;;;5059849;28;20227;-54
2023/06/03 02:01:54;;;;;;;2.53;1.53;;;11.20;99.90;;;;;;5064204;28;20218;-54
2023/06/03 02:04:20;;;;;;;4.50;1.70;;;11.20;99.90;;;;;;5061599;28;20439;-53
2023/06/03 02:06:51;;;;;;;1.50;1.40;;;11.30;99.90;;;;;;5054468;28;20461;-53
2023/06/03 02:09:17;;;;;;;3.10;1.03;;;11.40;99.90;;;;;;5056624;28;20180;-55
2023/06/03 02:11:45;;;;;;;1.83;1.20;;;11.40;99.90;;;;;;5046315;28;20435;-53
2023/06/03 02:14:11;;;;;;;1.60;1.00;;;11.50;99.90;;;;;;5061407;28;20777;-53
2023/06/03 02:16:38;;;;;;;1.83;1.33;;;11.40;99.90;;;;;;5055827;28;20474;-56
2023/06/03 02:19:17;;;;;;;1.73;1.10;;;11.40;99.90;;;;;;5054478;28;20441;-53
2023/06/03 02:21:43;;;;;;;4.50;1.40;;;11.40;99.90;;;;;;5060981;28;20808;-55
2023/06/03 02:24:10;;;;;;;3.47;1.53;;;11.40;99.90;;;;;;5057643;28;20447;-53
2023/06/03 02:26:36;;;;;;;8.40;1.40;;;11.40;99.90;;;;;;5056334;28;20482;-54
2023/06/03 02:29:11;;;;;;;3.03;1.20;;;11.20;99.90;;;;;;5057158;28;20521;-53
2023/06/03 02:31:36;;;;;;;2.73;1.50;;;11.20;99.90;;;;;;5056424;28;20435;-53
2023/06/03 02:34:02;;;;;;;5.00;2.10;;;11.10;99.90;;;;;;5062448;28;20504;-53
2023/06/03 02:36:28;;;;;;;5.80;2.20;;;11.00;99.90;;;;;;5056496;28;20177;-55
2023/06/03 02:38:53;;;;;;;3.07;1.57;;;11.10;99.90;;;;;;5059401;28;20588;-55
2023/06/03 02:41:19;;;;;;;2.83;1.30;;;11.10;99.90;;;;;;5050770;28;20203;-53
2023/06/03 02:43:44;;;;;;;3.40;1.33;;;11.00;99.90;;;;;;5065138;28;20445;-53
2023/06/03 02:46:10;;;;;;;3.27;1.23;;;11.00;99.90;;;;;;5060556;28;20283;-53
2023/06/03 02:48:35;;;;;;;3.00;1.70;;;11.00;99.90;;;;;;5064286;28;20180;-54
2023/06/03 02:51:01;;;;;;;3.33;1.30;;;11.00;99.90;;;;;;5057470;28;20184;-56
2023/06/03 02:53:27;;;;;;;1.40;1.10;;;11.00;99.90;;;;;;5064449;28;20188;-53
2023/06/03 02:55:52;;;;;;;1.93;1.30;;;11.00;99.90;;;;;;5057917;28;20194;-54
2023/06/03 02:58:19;;;;;;;1.57;1.10;;;11.00;99.90;;;;;;5061616;28;20704;-54
2023/06/03 03:00:44;;;;;;;2.00;1.33;;;11.00;99.90;;;;;;5068384;28;20666;-53
2023/06/03 03:03:10;;;;;;;1.53;1.17;;;11.00;99.90;;;;;;5060296;28;20434;-57
2023/06/03 03:05:36;;;;;;;4.57;1.50;;;11.00;99.90;;;;;;5058233;28;20624;-53
2023/06/03 03:08:03;;;;;;;5.87;1.63;;;11.00;99.90;;;;;;5063840;28;20808;-53
2023/06/03 03:10:29;;;;;;;2.23;1.27;;;10.90;99.90;;;;;;5062805;28;20966;-55
2023/06/03 03:12:55;;;;;;;2.40;1.60;;;10.90;99.90;;;;;;5060556;28;20529;-53
2023/06/03 03:15:20;;;;;;;4.90;1.57;;;10.90;99.90;;;;;;5054884;28;20192;-53
2023/06/03 03:17:46;;;;;;;1.60;1.37;;;10.90;99.90;;;;;;5062491;28;20191;-53
2023/06/03 03:20:12;;;;;;;3.40;1.60;;;10.90;99.90;;;;;;5058452;28;20272;-54
2023/06/03 03:22:44;;;;;;;4.50;1.20;;;10.90;99.90;;;;;;5056619;28;20550;-54
2023/06/03 03:25:10;;;;;;;2.50;1.70;;;10.80;99.90;;;;;;5058693;28;20211;-54
2023/06/03 03:27:35;;;;;;;4.57;1.47;;;10.90;99.90;;;;;;5060024;28;20944;-53
2023/06/03 03:30:02;;;;;;;4.30;1.60;;;10.90;99.90;;;;;;5052242;28;20469;-56
2023/06/03 03:32:28;;;;;;;2.40;1.53;;;11.10;99.90;;;;;;5057014;28;20184;-52
2023/06/03 03:35:15;;;;;;;3.23;2.27;;;11.30;99.90;;;;;;5061754;28;20518;-54
2023/06/03 03:37:41;;;;;;;3.20;2.70;;;11.30;99.90;;;;;;5060457;28;20543;-53
2023/06/03 03:40:21;;;;;;;2.10;1.60;;;11.40;99.90;;;;;;5055226;28;20506;-53
2023/06/03 03:42:51;;;;;;;3.93;1.50;;;11.50;99.90;;;;;;5059862;28;20889;-53
2023/06/03 03:45:19;;;;;;;3.50;1.73;;;11.50;99.90;;;;;;5053850;28;20556;-53
2023/06/03 03:47:51;;;;;;;6.37;2.00;;;11.60;99.90;;;;;;5062141;28;20517;-53
2023/06/03 03:50:48;;;;;;;1.90;1.60;;;11.50;99.90;;;;;;5052586;28;21084;-53
2023/06/03 03:53:27;;;;;;;1.83;1.43;;;11.40;99.90;;;;;;5038975;28;20874;-54
2023/06/03 03:55:55;;;;;;;2.43;1.80;;;11.30;99.90;;;;;;5060267;28;20434;-54
2023/06/03 03:58:41;;;;;;;1.73;1.63;;;11.30;99.90;;;;;;5056002;28;20812;-52
2023/06/03 04:01:12;;;;;;;3.60;1.87;;;11.20;99.90;;;;;;5063388;28;20469;-53
2023/06/03 04:03:42;;;;;;;3.57;2.33;;;11.20;99.90;;;;;;5061070;28;20480;-53
2023/06/03 04:06:09;;;;;;;3.73;1.93;;;11.20;99.90;;;;;;5062383;28;20534;-53
2023/06/03 04:08:54;;;;;;;3.43;1.40;;;11.20;99.90;;;;;;5061365;28;20431;-53
2023/06/03 04:11:49;;;;;;;2.80;1.40;;;11.10;99.90;;;;;;5058154;28;20940;-55
2023/06/03 04:14:16;;;;;;;3.33;1.90;;;11.20;99.90;;;;;;5056247;28;20509;-52
2023/06/03 04:17:02;;;;;;;2.03;1.87;;;11.20;99.90;;;;;;5055572;28;20438;-53
2023/06/03 04:19:41;;;;;;;3.53;1.80;;;11.20;99.90;;;;;;5054137;28;21009;-53
2023/06/03 04:22:08;;;;;;;3.10;1.30;;;11.30;99.90;;;;;;5054453;28;20453;-54
2023/06/03 04:24:35;;;;;;;1.67;1.30;;;11.30;99.90;;;;;;5063630;28;20476;-53
2023/06/03 04:27:08;;;;;;;3.97;2.13;;;11.40;99.90;;;;;;5057725;28;20451;-54
2023/06/03 04:29:34;;;;;;;2.63;1.63;;;11.40;99.90;;;;;;5062482;28;20441;-55
2023/06/03 04:31:59;;;;;;;3.30;1.90;;;11.40;99.90;;;;;;5052606;28;20512;-54
2023/06/03 04:34:27;;;;;;;6.43;1.63;;;11.40;99.90;;;;;;5055026;28;20180;-54
2023/06/03 04:36:53;;;;;;;3.50;2.00;;;11.50;99.90;;;;;;5060800;28;20242;-54
2023/06/03 04:39:19;;;;;;;3.77;1.80;;;11.50;99.90;;;;;;5062293;28;20443;-54
2023/06/03 04:41:44;;;;;;;6.33;1.57;;;11.50;99.90;;;;;;5061039;28;20651;-53
2023/06/03 04:44:11;;;;;;;3.33;2.00;;;11.50;99.90;;;;;;5055291;28;20450;-55
2023/06/03 04:46:37;;;;;;;3.27;1.43;;;11.50;99.90;;;;;;5053652;28;20231;-54
2023/06/03 04:49:03;;;;;;;2.07;1.47;;;11.50;99.90;;;;;;5061050;28;20506;-52
2023/06/03 04:51:33;;;;;;;6.73;1.87;;;11.60;99.90;;;;;;5064416;28;20522;-54
2023/06/03 04:54:00;;;;;;;3.50;1.80;;;11.60;99.90;;;;;;5066154;28;20541;-53
2023/06/03 04:56:29;;;;;;;3.00;1.30;;;11.70;99.90;;;;;;5060044;28;20480;-53
2023/06/03 04:59:00;;;;;;;2.60;1.80;;;11.80;99.90;;;;;;5059857;28;20509;-55
2023/06/03 05:01:27;;;;;;;4.00;1.23;;;11.90;99.90;;;;;;5060014;28;20933;-55
2023/06/03 05:03:54;;;;;;;2.20;1.57;;;12.00;99.90;;;;;;5064617;28;20454;-54
2023/06/03 05:06:20;;;;;;;1.97;1.67;;;12.20;99.90;;;;;;5065112;28;20472;-53
2023/06/03 05:08:47;;;;;;;2.73;1.60;;;12.20;99.90;;;;;;5064161;28;20446;-53
2023/06/03 05:11:15;;;;;;;4.43;1.77;;;12.30;99.90;;;;;;5062695;28;20446;-55
2023/06/03 05:13:41;;;;;;;3.07;1.83;;;12.40;99.90;;;;;;5058839;28;20474;-55
2023/06/03 05:16:06;;;;;;;2.47;1.70;;;12.30;99.90;;;;;;5057103;28;20806;-53
2023/06/03 05:18:32;;;;;;;8.30;1.73;;;11.20;99.90;;;;;;5056749;28;20453;-53
2023/06/03 05:20:57;;;;;;;2.97;1.20;;;12.40;99.90;;;;;;5051513;28;20188;-55
2023/06/03 05:23:23;;;;;;;2.17;1.50;;;12.40;99.90;;;;;;5068825;28;20292;-55
2023/06/03 05:25:49;;;;;;;3.50;1.70;;;12.50;99.90;;;;;;5061086;28;20219;-53
2023/06/03 05:28:14;;;;;;;1.87;1.53;;;12.70;99.90;;;;;;5061924;28;20219;-52
2023/06/03 05:30:40;;;;;;;2.77;1.63;;;12.90;99.90;;;;;;5064323;28;20176;-53
2023/06/03 05:33:08;;;;;;;5.53;1.90;;;13.00;99.90;;;;;;5051000;28;20192;-53
2023/06/03 05:35:33;;;;;;;4.60;1.40;;;13.10;99.90;;;;;;5062136;28;20195;-54
2023/06/03 05:37:59;;;;;;;4.70;2.30;;;13.30;99.90;;;;;;5065777;28;20537;-56
2023/06/03 05:40:24;;;;;;;3.10;1.70;;;13.50;99.90;;;;;;5062567;28;20854;-55
2023/06/03 05:42:50;;;;;;;7.40;2.77;;;13.60;99.90;;;;;;5058434;28;20200;-54
2023/06/03 05:45:16;;;;;;;3.20;1.70;;;13.60;99.90;;;;;;5056913;28;20281;-54
2023/06/03 05:47:42;;;;;;;2.23;1.47;;;13.80;99.90;;;;;;5065937;28;20626;-53
2023/06/03 05:50:08;;;;;;;3.53;1.87;;;14.10;99.90;;;;;;5053733;28;20450;-52
2023/06/03 05:52:33;;;;;;;5.97;2.30;;;14.10;99.90;;;;;;5062518;28;20184;-53
2023/06/03 05:54:59;;;;;;;3.33;2.27;;;14.10;99.90;;;;;;5057718;28;20593;-55
2023/06/03 05:57:24;;;;;;;1.90;1.60;;;14.10;99.90;;;;;;5062569;28;20512;-54
2023/06/03 05:59:51;;;;;;;5.90;2.03;;;14.20;99.90;;;;;;5055441;28;20629;-53
2023/06/03 06:02:20;;;;;;;4.10;1.73;;;14.40;99.90;;;;;;5056736;28;20180;-55
2023/06/03 06:04:46;;;;;;;3.90;1.90;;;14.50;99.90;;;;;;5061120;28;20457;-54
2023/06/03 06:07:12;;;;;;;6.00;1.70;;;14.60;99.90;;;;;;5064801;28;20971;-55
2023/06/03 06:09:37;;;;;;;2.33;1.50;;;14.80;99.90;;;;;;5046640;28;20642;-55
2023/06/03 06:12:04;;;;;;;2.03;1.57;;;14.80;99.90;;;;;;5053990;28;20267;-54
2023/06/03 06:14:29;;;;;;;3.63;1.97;;;14.90;99.90;;;;;;5063189;28;20180;-53
2023/06/03 06:16:55;;;;;;;4.53;1.97;;;15.00;99.90;;;;;;5060590;28;20439;-55
2023/06/03 06:19:23;;;;;;;4.93;3.73;;;15.20;99.90;;;;;;5054080;28;20955;-55
2023/06/03 06:21:49;;;;;;;5.27;3.50;;;15.50;99.90;;;;;;5061445;28;20193;-55
2023/06/03 06:24:16;;;;;;;3.80;2.17;;;15.70;99.90;;;;;;5056584;28;20549;-54
2023/06/03 06:26:42;;;;;;;2.50;2.30;;;15.70;99.90;;;;;;5066780;28;20542;-53
2023/06/03 06:29:07;;;;;;;6.07;2.97;;;15.80;99.90;;;;;;5055412;28;20451;-54
2023/06/03 06:31:33;;;;;;;4.10;2.33;;;16.10;99.90;;;;;;5057960;28;20445;-54
2023/06/03 06:34:00;;;;;;;3.73;1.60;;;16.20;99.90;;;;;;5063107;28;20970;-53
2023/06/03 06:36:49;;;;;;;5.10;2.00;;;16.10;99.90;;;;;;5059924;28;20203;-53
2023/06/03 06:39:33;;;;;;;4.00;2.10;;;16.20;99.90;;;;;;5063024;28;20537;-54
2023/06/03 06:42:12;;;;;;;5.37;1.77;;;16.30;99.90;;;;;;5052553;28;20714;-54
2023/06/03 06:44:48;;;;;;;2.77;1.50;;;16.40;99.90;;;;;;5057380;28;20446;-54
2023/06/03 06:47:20;;;;;;;2.83;1.57;;;16.40;99.90;;;;;;5055381;28;20450;-53
2023/06/03 06:49:47;;;;;;;3.27;1.70;;;16.50;99.90;;;;;;5059958;28;20443;-53
2023/06/03 06:52:13;;;;;;;3.80;1.43;;;16.40;99.90;;;;;;5054660;28;20448;-54
2023/06/03 06:54:40;;;;;;;3.90;1.70;;;16.50;99.90;;;;;;5057437;28;20450;-53
2023/06/03 06:57:06;;;;;;;2.30;1.93;;;16.60;99.90;;;;;;5058344;28;21008;-54
2023/06/03 06:59:32;;;;;;;3.67;1.60;;;16.90;99.90;;;;;;5061614;28;20569;-54
2023/06/03 07:01:58;;;;;;;1.97;1.40;;;17.10;99.90;;;;;;5052289;28;20646;-54
2023/06/03 07:04:24;;;;;;;1.97;1.20;;;17.20;99.90;;;;;;5061539;28;20449;-54
2023/06/03 07:06:50;;;;;;;2.30;1.43;;;17.40;99.90;;;;;;5053032;28;20196;-54
2023/06/03 07:09:17;;;;;;;2.30;1.60;;;17.60;99.90;;;;;;5046080;28;20877;-54
2023/06/03 07:11:44;;;;;;;2.03;1.50;;;17.60;99.90;;;;;;5050934;28;20474;-54
2023/06/03 07:14:10;;;;;;;2.73;1.53;;;17.70;99.90;;;;;;5051337;28;20242;-52
2023/06/03 07:16:35;;;;;;;1.77;1.67;;;17.90;99.90;;;;;;5057388;28;20447;-54
2023/06/03 07:19:02;;;;;;;5.10;1.30;;;17.80;99.90;;;;;;5060996;28;20196;-54
2023/06/03 07:21:28;;;;;;;1.83;1.37;;;18.00;99.90;;;;;;5061139;28;20187;-53
2023/06/03 07:23:54;;;;;;;1.87;1.30;;;18.20;99.90;;;;;;5058451;28;20455;-54
2023/06/03 07:26:20;;;;;;;1.63;1.23;;;18.40;99.90;;;;;;5055941;28;20196;-54
2023/06/03 07:28:47;;;;;;;5.13;1.83;;;18.40;99.90;;;;;;5055638;28;20208;-54
2023/06/03 07:31:13;;;;;;;4.80;2.40;;;18.50;99.90;;;;;;5053849;28;20259;-54
2023/06/03 07:33:55;;;;;;;5.23;1.20;;;18.50;99.90;;;;;;5055284;28;20525;-53
2023/06/03 07:36:24;;;;;;;4.30;1.20;;;18.70;99.90;;;;;;5062805;28;20765;-53
2023/06/03 07:39:03;;;;;;;6.17;2.10;;;18.90;99.90;;;;;;5059158;28;20442;-54
2023/06/03 07:41:43;;;;;;;3.07;1.40;;;19.10;99.90;;;;;;5059830;28;20466;-54
2023/06/03 07:44:14;;;;;;;2.20;1.40;;;19.10;99.90;;;;;;5057696;28;20781;-54
2023/06/03 07:46:43;;;;;;;3.30;1.23;;;19.20;99.90;;;;;;5057386;28;20472;-53
2023/06/03 07:49:14;;;;;;;1.80;1.33;;;19.30;99.90;;;;;;5056481;28;20562;-55
2023/06/03 07:51:48;;;;;;;2.00;1.30;;;19.20;99.90;;;;;;5057502;28;20449;-54
2023/06/03 07:54:15;;;;;;;5.70;1.67;;;19.20;99.90;;;;;;5059102;28;20790;-56
2023/06/03 07:56:41;;;;;;;2.57;1.23;;;19.30;99.90;;;;;;5059339;28;20444;-55
2023/06/03 07:59:10;;;;;;;3.13;1.50;;;19.30;99.90;;;;;;5061432;28;20507;-54
2023/06/03 08:01:36;;;;;;;3.70;1.23;;;19.40;99.90;;;;;;5058490;28;20439;-56
2023/06/03 08:04:24;;;;;;;1.33;0.93;;;19.40;99.90;;;;;;5060853;28;20482;-55
2023/06/03 08:06:52;;;;;;;5.60;1.53;;;19.70;99.90;;;;;;5058702;28;20860;-55
2023/06/03 08:09:27;;;;;;;2.03;1.10;;;19.80;99.90;;;;;;5057191;28;20451;-55
2023/06/03 08:11:54;;;;;;;2.10;1.20;;;19.80;99.90;;;;;;5057624;28;20770;-55
2023/06/03 08:14:21;;;;;;;2.40;1.10;;;19.90;99.90;;;;;;5059766;28;20440;-54
2023/06/03 08:16:47;;;;;;;2.40;1.50;;;20.10;99.90;;;;;;5051331;28;20454;-56
2023/06/03 08:19:16;;;;;;;4.17;1.40;;;20.20;99.90;;;;;;5056443;28;20810;-54
2023/06/03 08:21:44;;;;;;;2.70;1.53;;;20.30;99.90;;;;;;5057642;28;20493;-53
2023/06/03 08:24:10;;;;;;;2.50;1.20;;;20.40;99.90;;;;;;5067042;28;20526;-55
2023/06/03 08:26:38;;;;;;;5.17;1.50;;;20.60;99.90;;;;;;5057658;28;20539;-54
2023/06/03 08:29:04;;;;;;;1.90;1.00;;;20.60;99.90;;;;;;5063710;28;20274;-55
2023/06/03 08:31:33;;;;;;;1.80;1.20;;;20.60;99.90;;;;;;5059248;28;20520;-55
2023/06/03 08:34:00;;;;;;;3.40;1.67;;;20.20;99.90;;;;;;5060246;28;20282;-55
2023/06/03 08:36:26;;;;;;;2.83;1.20;;;20.20;99.90;;;;;;5054917;28;20449;-54
2023/06/03 08:38:52;;;;;;;1.77;1.30;;;20.10;99.90;;;;;;5059060;28;20571;-54
2023/06/03 08:41:18;;;;;;;2.90;1.60;;;20.30;99.90;;;;;;5060638;28;20195;-55
2023/06/03 08:43:50;;;;;;;2.47;1.40;;;20.50;99.90;;;;;;5059215;28;20192;-54
2023/06/03 08:46:25;;;;;;;2.03;1.00;;;20.80;99.90;;;;;;5063421;28;20830;-55
2023/06/03 08:49:17;;;;;;;3.47;1.23;;;21.00;99.90;;;;;;5061899;28;20441;-54
2023/06/03 08:51:48;;;;;;;3.20;1.40;;;20.90;99.90;;;;;;5064965;28;20524;-56
2023/06/03 08:54:17;;;;;;;2.37;1.40;;;21.00;99.90;;;;;;5054536;28;20538;-55
2023/06/03 08:56:56;;;;;;;1.87;1.50;;;21.00;99.90;;;;;;5058788;28;20448;-55
2023/06/03 08:59:25;;;;;;;3.77;1.50;;;21.10;99.90;;;;;;5063659;28;20525;-53
2023/06/03 09:01:54;;;;;;;3.27;1.40;;;21.20;99.90;;;;;;5058847;28;20456;-54
2023/06/03 09:04:21;;;;;;;2.40;1.50;;;21.40;99.90;;;;;;5059828;28;20450;-54
2023/06/03 09:06:49;;;;;;;2.50;1.20;;;21.40;99.90;;;;;;5061307;28;20992;-55
2023/06/03 09:09:15;;;;;;;2.50;1.30;;;21.30;99.90;;;;;;5069513;28;20507;-53
2023/06/03 09:11:44;;;;;;;5.87;1.43;;;21.30;99.90;;;;;;5067218;28;20473;-54
2023/06/03 09:14:10;;;;;;;2.37;1.10;;;21.30;99.90;;;;;;5066039;28;20435;-55
2023/06/03 09:16:36;;;;;;;2.70;1.10;;;21.40;99.90;;;;;;5062176;28;20457;-54
2023/06/03 09:19:03;;;;;;;1.73;1.20;;;21.40;99.90;;;;;;5058452;28;20285;-55
2023/06/03 09:21:29;;;;;;;5.03;1.30;;;21.50;99.90;;;;;;5061179;28;20936;-56
2023/06/03 09:23:54;;;;;;;3.80;1.07;;;21.40;99.90;;;;;;5058115;28;20448;-55
2023/06/03 09:26:21;;;;;;;2.70;1.10;;;21.40;99.90;;;;;;5072115;28;20203;-54
2023/06/03 09:28:48;;;;;;;1.67;1.00;;;21.40;99.90;;;;;;5053840;28;20221;-54
2023/06/03 09:31:14;;;;;;;1.60;0.90;;;21.50;99.90;;;;;;5052908;28;20444;-53
2023/06/03 09:33:42;;;;;;;1.63;1.00;;;21.60;99.90;;;;;;5063573;28;20998;-54
2023/06/03 09:36:13;;;;;;;1.90;0.97;;;21.50;99.90;;;;;;5063869;28;20717;-55
2023/06/03 09:38:53;;;;;;;3.37;1.27;;;21.20;99.90;;;;;;5059330;28;20462;-54
2023/06/03 09:41:20;;;;;;;2.87;1.03;;;21.30;99.90;;;;;;5051341;28;20514;-55
2023/06/03 09:44:01;;;;;;;1.70;0.87;;;21.30;99.90;;;;;;5062944;28;20797;-54
2023/06/03 09:46:30;;;;;;;2.07;1.10;;;21.40;99.90;;;;;;5052477;28;20463;-54
2023/06/03 09:49:13;;;;;;;1.77;1.00;;;21.40;99.90;;;;;;5065966;28;20434;-54
2023/06/03 09:51:48;;;;;;;2.40;1.37;;;21.40;99.90;;;;;;5052637;28;20453;-54
2023/06/03 09:54:20;;;;;;;2.30;1.03;;;21.50;99.90;;;;;;5058749;28;20512;-56
2023/06/03 09:56:46;;;;;;;3.47;1.80;;;21.30;99.90;;;;;;5057503;28;20800;-55
2023/06/03 09:59:23;;;;;;;2.53;1.00;;;20.90;99.90;;;;;;5063545;28;21003;-54
2023/06/03 10:01:53;;;;;;;3.17;1.10;;;20.70;99.90;;;;;;5050104;28;20950;-54
2023/06/03 10:04:38;;;;;;;2.23;1.20;;;20.60;99.90;;;;;;5059198;28;20448;-54
2023/06/03 10:07:13;;;;;;;3.00;1.27;;;20.70;99.90;;;;;;5057917;28;20522;-54
2023/06/03 10:09:44;;;;;;;1.57;1.10;;;21.10;99.90;;;;;;5062023;28;20430;-54
2023/06/03 10:12:11;;;;;;;2.67;1.07;;;21.30;99.90;;;;;;5058862;28;20843;-54
2023/06/03 10:14:44;;;;;;;2.87;0.90;;;21.40;99.90;;;;;;5061908;28;20439;-55
2023/06/03 10:17:12;;;;;;;1.27;0.80;;;21.40;99.90;;;;;;5052402;28;20553;-54
2023/06/03 10:19:42;;;;;;;1.50;0.60;;;21.30;99.90;;;;;;5057277;28;20441;-54
2023/06/03 10:22:10;;;;;;;1.37;0.80;;;20.90;99.90;;;;;;5057124;28;21014;-53
2023/06/03 10:24:44;;;;;;;2.87;1.37;;;20.90;99.90;;;;;;5061136;28;20522;-54
2023/06/03 10:27:12;;;;;;;1.93;0.90;;;21.10;99.90;;;;;;5065052;28;20437;-54
2023/06/03 10:29:37;;;;;;;2.07;1.00;;;21.10;99.90;;;;;;5062716;28;20529;-55
2023/06/03 10:32:06;;;;;;;6.60;1.10;;;21.10;99.90;;;;;;5054467;28;20532;-55
2023/06/03 10:34:35;;;;;;;2.50;1.10;;;21.10;99.90;;;;;;5056696;28;20191;-53
2023/06/03 10:37:04;;;;;;;1.73;1.20;;;20.90;99.90;;;;;;5048455;28;20804;-53
2023/06/03 10:39:30;;;;;;;2.90;1.03;;;21.00;99.90;;;;;;5064232;28;20439;-55
2023/06/03 10:42:01;;;;;;;3.13;0.80;;;21.20;99.90;;;;;;5058637;28;20471;-54
2023/06/03 10:44:28;;;;;;;2.00;0.80;;;21.10;99.90;;;;;;5053514;28;20459;-53
2023/06/03 10:47:01;;;;;;;1.60;1.10;;;21.30;99.90;;;;;;5053763;28;20442;-53
2023/06/03 10:49:31;;;;;;;1.67;1.17;;;21.50;99.90;;;;;;5059480;28;20441;-55
2023/06/03 10:52:08;;;;;;;3.73;1.27;;;21.70;99.90;;;;;;5052944;28;20441;-54
2023/06/03 10:54:59;;;;;;;2.70;1.10;;;21.70;99.90;;;;;;5053319;28;20440;-53
2023/06/03 10:57:33;;;;;;;2.27;1.20;;;20.90;99.90;;;;;;5056801;28;20591;-54
2023/06/03 10:59:59;;;;;;;2.33;1.10;;;20.90;99.90;;;;;;5054861;28;20555;-55
2023/06/03 11:02:25;;;;;;;1.47;0.97;;;21.20;99.90;;;;;;5051900;28;20496;-54
2023/06/03 11:05:22;;;;;;;1.33;0.90;;;21.00;99.90;;;;;;5054086;28;20216;-56
2023/06/03 11:07:47;;;;;;;1.97;1.23;;;20.50;99.90;;;;;;5056895;28;20469;-54
2023/06/03 11:10:35;;;;;;;1.63;0.93;;;20.70;99.90;;;;;;5062106;28;20472;-53
2023/06/03 11:13:01;;;;;;;3.07;1.17;;;20.60;99.90;;;;;;5061565;28;20181;-54
2023/06/03 11:16:02;;;;;;;3.87;1.00;;;20.70;99.90;;;;;;5059637;28;20436;-55
2023/06/03 11:18:29;;;;;;;5.80;1.07;;;20.90;99.90;;;;;;5056524;28;20528;-54
2023/06/03 11:20:56;;;;;;;2.50;0.80;;;20.70;99.90;;;;;;5053644;28;20973;-54
2023/06/03 11:23:40;;;;;;;2.30;1.07;;;20.90;99.90;;;;;;5060786;28;20938;-55
2023/06/03 11:26:34;;;;;;;1.63;0.60;;;21.20;99.90;;;;;;5055464;28;20458;-54
2023/06/03 11:29:04;;;;;;;2.93;1.23;;;21.30;99.90;;;;;;5060755;28;20447;-55
2023/06/03 11:31:32;;;;;;;1.93;0.90;;;21.20;99.90;;;;;;5057182;28;20432;-53
2023/06/03 11:34:22;;;;;;;2.30;1.20;;;20.90;99.90;;;;;;5058813;28;20435;-54
2023/06/03 11:37:06;;;;;;;1.03;0.67;;;20.70;99.90;;;;;;5051182;28;20849;-54
2023/06/03 11:40:06;;;;;;;1.50;0.93;;;20.70;99.90;;;;;;5057080;28;20577;-54
2023/06/03 11:42:49;;;;;;;4.73;1.73;;;20.80;99.90;;;;;;5056171;28;20460;-54
2023/06/03 11:45:29;;;;;;;1.63;0.97;;;21.00;99.90;;;;;;5053848;28;20458;-54
2023/06/03 11:47:55;;;;;;;1.70;1.03;;;21.30;99.90;;;;;;5056580;28;20448;-54
2023/06/03 11:50:23;;;;;;;2.63;1.00;;;21.50;99.90;;;;;;5063220;28;20442;-54
2023/06/03 11:52:49;;;;;;;1.60;1.20;;;21.50;99.90;;;;;;5053039;28;20201;-54
2023/06/03 11:55:24;;;;;;;1.80;1.03;;;21.70;99.90;;;;;;5055610;28;20819;-54
2023/06/03 11:57:50;;;;;;;2.57;1.07;;;21.70;99.90;;;;;;5059725;28;20286;-54
2023/06/03 12:00:18;;;;;;;2.60;1.37;;;21.50;99.90;;;;;;5055687;28;21065;-53
2023/06/03 12:02:47;;;;;;;1.37;1.00;;;21.60;99.90;;;;;;5059225;28;20602;-54
2023/06/03 12:05:16;;;;;;;2.73;1.10;;;21.70;99.90;;;;;;5051940;28;20468;-54
2023/06/03 12:08:01;;;;;;;1.73;1.10;;;21.80;99.90;;;;;;5055884;28;20529;-54
2023/06/03 12:10:39;;;;;;;1.37;0.80;;;21.70;99.90;;;;;;5050647;28;20445;-55
2023/06/03 12:13:05;;;;;;;3.37;1.20;;;22.00;99.90;;;;;;5052890;28;20454;-54
2023/06/03 12:15:30;;;;;;;1.77;0.90;;;22.10;99.90;;;;;;5053821;28;20959;-53
2023/06/03 12:18:03;;;;;;;1.40;1.00;;;21.90;99.90;;;;;;5052615;28;20183;-57
2023/06/03 12:20:29;;;;;;;3.67;1.00;;;21.70;99.90;;;;;;5046298;28;20202;-55
2023/06/03 12:23:03;;;;;;;3.47;0.90;;;21.80;99.90;;;;;;5043965;28;20434;-54
2023/06/03 12:25:29;;;;;;;0.97;0.77;;;21.70;99.90;;;;;;5053928;28;21033;-54
2023/06/03 12:27:56;;;;;;;0.90;0.70;;;21.60;99.90;;;;;;5057088;28;20471;-53
2023/06/03 12:30:32;;;;;;;1.27;0.80;;;21.70;99.90;;;;;;5061241;28;20436;-56
2023/06/03 12:32:58;;;;;;;0.90;0.70;;;21.70;99.90;;;;;;5057322;28;20846;-55
2023/06/03 12:35:28;;;;;;;1.70;1.13;;;21.80;99.90;;;;;;5056869;28;20474;-54
2023/06/03 12:38:07;;;;;;;1.27;0.73;;;21.90;99.90;;;;;;5060021;28;20460;-54
2023/06/03 12:40:35;;;;;;;2.27;0.90;;;21.80;99.90;;;;;;5053896;28;20932;-53
2023/06/03 12:43:02;;;;;;;1.90;0.90;;;21.40;99.90;;;;;;5060430;28;20456;-55
2023/06/03 12:45:28;;;;;;;1.40;0.97;;;21.30;99.90;;;;;;5060356;28;20534;-53
2023/06/03 12:47:54;;;;;;;1.23;1.00;;;21.40;99.90;;;;;;5054926;28;20449;-54
2023/06/03 12:50:21;;;;;;;1.50;0.90;;;21.50;99.90;;;;;;5054966;28;20509;-55
2023/06/03 12:52:47;;;;;;;2.13;0.90;;;21.60;99.90;;;;;;5054717;28;20441;-54
2023/06/03 12:55:14;;;;;;;1.30;1.00;;;21.50;99.90;;;;;;5054436;28;20447;-53
2023/06/03 12:57:42;;;;;;;1.33;0.93;;;21.50;99.90;;;;;;5057616;28;20444;-54